createdAt,value
2023-01-07T09:58:33.460Z,10.18
2023-01-07T10:01:23.211Z,14.35
2023-01-07T10:04:19.174Z,7.38
2023-01-07T10:06:57.084Z,8.65
2023-01-07T10:09:26.769Z,10.15
2023-01-07T10:12:06.413Z,5.88
2023-01-07T10:14:59.350Z,12.23
2023-01-07T10:17:29.592Z,8.50
2023-01-07T10:20:09.002Z,8.52
2023-01-07T10:22:38.433Z,5.95
2023-01-07T10:25:15.737Z,6.13
2023-01-07T10:27:43.877Z,6.28
2023-01-07T10:30:25.824Z,6.57
2023-01-07T10:33:05.595Z,6.75
2023-01-07T10:35:34.319Z,5.40
2023-01-07T10:38:04.706Z,5.03
2023-01-07T10:41:05.407Z,3.45
2023-01-07T10:43:38.025Z,5.28
2023-01-07T10:46:29.128Z,3.78
2023-01-07T10:48:55.712Z,2.83
2023-01-07T10:51:37.356Z,4.13
2023-01-07T10:54:16.251Z,5.07
2023-01-07T10:56:48.714Z,3.17
2023-01-07T10:59:18.526Z,6.95
2023-01-07T11:01:50.154Z,6.15
2023-01-07T11:04:17.185Z,8.90
2023-01-07T11:07:26.232Z,5.90
2023-01-07T11:09:53.614Z,7.72
2023-01-07T11:12:45.155Z,6.25
2023-01-07T11:15:37.129Z,6.55
2023-01-07T11:18:29.407Z,4.70
2023-01-07T11:20:57.641Z,3.53
2023-01-07T11:23:42.852Z,4.05
2023-01-07T11:26:27.476Z,4.18
2023-01-07T11:29:00.175Z,3.08
2023-01-07T11:31:47.512Z,3.92
2023-01-07T11:34:38.026Z,4.40
2023-01-07T11:37:05.296Z,3.55
2023-01-07T11:39:36.165Z,5.47
2023-01-07T11:42:25.682Z,2.67
2023-01-07T11:45:20.406Z,5.82
2023-01-07T11:48:08.715Z,5.28
2023-01-07T11:50:41.055Z,7.10
2023-01-07T11:53:11.382Z,4.70
2023-01-07T11:55:38.053Z,4.07
2023-01-07T11:58:28.914Z,5.47
2023-01-07T12:01:08.952Z,4.47
2023-01-07T12:03:37.421Z,4.15
2023-01-07T12:06:24.007Z,5.32
2023-01-07T12:09:04.842Z,3.33
2023-01-07T12:11:34.853Z,4.20
2023-01-07T12:14:12.133Z,5.20
2023-01-07T12:16:38.875Z,5.85
2023-01-07T12:19:23.243Z,4.45
2023-01-07T12:22:10.744Z,5.95
2023-01-07T12:24:56.234Z,3.92
2023-01-07T12:27:37.735Z,4.60
2023-01-07T12:30:07.288Z,7.25
2023-01-07T12:32:49.121Z,7.43
2023-01-07T12:35:19.343Z,5.70
2023-01-07T12:37:53.797Z,6.43
2023-01-07T12:40:31.885Z,5.82
2023-01-07T12:43:13.617Z,7.25
2023-01-07T12:45:46.554Z,6.32
2023-01-07T12:48:21.102Z,6.72
2023-01-07T12:50:50.165Z,5.28
2023-01-07T12:53:34.108Z,5.07
2023-01-07T12:56:04.838Z,3.55
2023-01-07T12:58:47.034Z,3.50
2023-01-07T13:01:29.138Z,5.53
2023-01-07T13:04:12.939Z,6.72
2023-01-07T13:06:44.917Z,4.60
2023-01-07T13:09:27.745Z,3.97
2023-01-07T13:12:40.788Z,4.93
2023-01-07T13:15:30.935Z,4.30
2023-01-07T13:17:59.725Z,5.22
2023-01-07T13:20:29.190Z,8.45
2023-01-07T13:22:56.663Z,10.05
2023-01-07T13:25:45.584Z,11.40
2023-01-07T13:28:47.099Z,8.85
2023-01-07T13:31:13.716Z,8.88
2023-01-07T13:34:08.340Z,6.90
2023-01-07T13:36:45.089Z,7.97
2023-01-07T13:39:27.230Z,9.75
2023-01-07T13:42:02.104Z,6.32
2023-01-07T13:44:54.521Z,10.65
2023-01-07T13:47:22.957Z,6.70
2023-01-07T13:50:00.777Z,21.10
2023-01-07T13:52:30.525Z,6.00
2023-01-07T13:55:02.817Z,9.20
2023-01-07T13:57:29.548Z,7.30
2023-01-07T13:59:57.813Z,7.60
2023-01-07T14:02:26.004Z,5.35
2023-01-07T14:05:10.648Z,5.03
2023-01-07T14:07:57.743Z,7.35
2023-01-07T14:10:35.500Z,6.95
2023-01-07T14:13:08.753Z,7.82
2023-01-07T14:18:28.310Z,8.43
2023-01-07T14:21:40.799Z,7.05
2023-01-07T14:24:44.956Z,8.25
2023-01-07T14:27:57.415Z,7.20
2023-01-07T14:30:36.432Z,8.52
2023-01-07T14:33:04.512Z,8.60
2023-01-07T14:35:36.221Z,8.25
2023-01-07T14:38:31.779Z,8.02
2023-01-07T14:41:11.036Z,7.32
2023-01-07T14:43:40.500Z,6.88
2023-01-07T14:46:08.615Z,9.02
2023-01-07T14:48:37.000Z,10.15
2023-01-07T14:51:29.125Z,9.65
2023-01-07T14:54:17.882Z,7.13
2023-01-07T14:57:01.892Z,6.68
2023-01-07T14:59:34.548Z,6.10
2023-01-07T15:02:32.027Z,6.63
2023-01-07T15:05:17.697Z,5.35
2023-01-07T15:07:48.692Z,5.63
2023-01-07T15:10:41.490Z,5.80
2023-01-07T15:13:32.818Z,6.03
2023-01-07T15:16:03.840Z,10.80
2023-01-07T15:18:52.520Z,8.30
2023-01-07T15:21:41.017Z,7.93
2023-01-07T15:24:13.899Z,8.75
2023-01-07T15:26:50.454Z,8.60
2023-01-07T15:29:32.235Z,9.20
2023-01-07T15:32:45.761Z,10.02
2023-01-07T15:35:25.275Z,9.23
2023-01-07T15:37:52.069Z,7.07
2023-01-07T15:40:20.692Z,8.63
2023-01-07T15:42:48.935Z,7.90
2023-01-07T15:45:20.528Z,7.03
2023-01-07T15:47:47.225Z,6.80
2023-01-07T15:50:27.834Z,5.90
2023-01-07T15:53:03.713Z,6.70
2023-01-07T15:55:39.009Z,10.02
2023-01-07T15:58:16.809Z,10.05
2023-01-07T16:00:43.878Z,10.23
2023-01-07T16:03:15.777Z,15.63
2023-01-07T16:05:42.951Z,16.00
2023-01-07T16:08:18.609Z,12.57
2023-01-07T16:11:02.264Z,10.10
2023-01-07T16:13:30.225Z,12.55
2023-01-07T16:16:03.389Z,12.13
2023-01-07T16:21:04.576Z,9.77
2023-01-07T16:23:36.185Z,8.68
2023-01-07T16:26:04.540Z,22.73
2023-01-07T16:28:34.832Z,11.27
2023-01-07T16:31:04.078Z,14.55
2023-01-07T16:33:32.649Z,17.00
2023-01-07T16:36:01.096Z,11.88
2023-01-07T16:38:28.130Z,12.93
2023-01-07T16:40:55.244Z,12.15
2023-01-07T16:43:40.186Z,14.00
2023-01-07T16:46:26.409Z,11.07
2023-01-07T16:49:11.350Z,8.60
2023-01-07T16:51:41.236Z,9.63
2023-01-07T16:54:25.903Z,15.15
2023-01-07T16:57:12.743Z,15.05
2023-01-07T16:59:45.704Z,13.70
2023-01-07T17:05:13.397Z,10.55
2023-01-07T17:07:40.443Z,10.13
2023-01-07T17:10:07.823Z,13.02
2023-01-07T17:12:39.363Z,14.88
2023-01-07T17:15:31.218Z,11.07
2023-01-07T17:18:13.060Z,10.13
2023-01-07T17:20:43.370Z,10.40
2023-01-07T17:23:25.351Z,8.65
2023-01-07T17:25:59.018Z,11.35
2023-01-07T17:28:27.035Z,12.05
2023-01-07T17:30:54.096Z,13.23
2023-01-07T17:33:22.688Z,13.50
2023-01-07T17:35:51.338Z,12.90
2023-01-07T17:38:18.909Z,11.75
2023-01-07T17:40:46.008Z,13.68
2023-01-07T17:43:37.532Z,9.55
2023-01-07T17:46:05.114Z,14.60
2023-01-07T17:48:32.632Z,13.02
2023-01-07T17:51:01.329Z,13.85
2023-01-07T17:53:37.852Z,14.73
2023-01-07T17:56:04.730Z,12.05
2023-01-07T17:58:33.869Z,10.70
2023-01-07T18:01:02.800Z,13.00
2023-01-07T18:03:29.663Z,15.57
2023-01-07T18:05:56.498Z,9.48
2023-01-07T18:08:23.316Z,12.85
2023-01-07T18:11:10.158Z,11.70
2023-01-07T18:13:37.140Z,14.32
2023-01-07T18:16:04.049Z,15.23
2023-01-07T18:18:30.804Z,16.63
2023-01-07T18:20:58.316Z,16.48
2023-01-07T18:23:25.440Z,15.15
2023-01-07T18:25:52.154Z,14.48
2023-01-07T18:28:18.822Z,12.23
2023-01-07T18:30:45.576Z,14.45
2023-01-07T18:33:12.852Z,16.08
2023-01-07T18:35:40.600Z,16.65
2023-01-07T18:38:16.875Z,16.08
2023-01-07T18:40:43.839Z,13.85
2023-01-07T18:43:14.653Z,13.68
2023-01-07T18:45:43.003Z,15.30
2023-01-07T18:48:11.035Z,11.48
2023-01-07T18:50:41.644Z,11.35
2023-01-07T18:53:09.556Z,11.15
2023-01-07T18:55:37.429Z,12.02
2023-01-07T18:58:04.328Z,11.77
2023-01-07T19:00:31.120Z,11.15
2023-01-07T19:02:58.391Z,10.13
2023-01-07T19:05:25.855Z,13.80
2023-01-07T19:07:53.022Z,12.60
2023-01-07T19:10:19.794Z,19.35
2023-01-07T19:12:46.559Z,25.77
2023-01-07T19:15:13.278Z,20.48
2023-01-07T19:17:39.946Z,17.20
2023-01-07T19:20:08.357Z,18.95
2023-01-07T19:22:35.166Z,18.00
2023-01-07T19:25:02.048Z,22.63
2023-01-07T19:27:28.831Z,15.57
2023-01-07T19:29:55.508Z,17.00
2023-01-07T19:32:22.341Z,14.45
2023-01-07T19:34:52.296Z,13.77
2023-01-07T19:37:19.424Z,13.40
2023-01-07T19:39:46.183Z,11.95
2023-01-07T19:42:12.891Z,12.55
2023-01-07T19:44:41.532Z,15.15
2023-01-07T19:47:08.297Z,24.73
2023-01-07T19:49:36.008Z,20.90
2023-01-07T19:52:05.369Z,32.67
2023-01-07T19:54:32.022Z,23.92
2023-01-07T19:56:58.677Z,31.85
2023-01-07T19:59:25.421Z,26.08
2023-01-07T20:01:53.757Z,23.83
2023-01-07T20:04:20.762Z,26.40
2023-01-07T20:06:47.876Z,27.02
2023-01-07T20:09:14.587Z,30.58
2023-01-07T20:11:43.138Z,27.30
2023-01-07T20:14:11.938Z,30.50
2023-01-07T20:16:41.359Z,32.20
2023-01-07T20:19:10.987Z,28.30
2023-01-07T20:21:41.335Z,19.80
2023-01-07T20:24:08.411Z,24.48
2023-01-07T20:26:35.562Z,21.35
2023-01-07T20:29:02.260Z,21.60
2023-01-07T20:31:30.171Z,25.92
2023-01-07T20:33:57.513Z,26.33
2023-01-07T20:36:29.917Z,21.45
2023-01-07T20:38:56.843Z,23.73
2023-01-07T20:41:27.410Z,25.30
2023-01-07T20:44:04.092Z,21.38
2023-01-07T20:46:31.430Z,23.23
2023-01-07T20:48:58.265Z,22.17
2023-01-07T20:51:25.613Z,27.33
2023-01-07T20:53:52.585Z,25.27
2023-01-07T20:56:21.872Z,25.60
2023-01-07T20:58:49.642Z,24.75
2023-01-07T21:01:19.107Z,25.65
2023-01-07T21:03:45.984Z,33.47
2023-01-07T21:06:14.250Z,29.65
2023-01-07T21:08:41.451Z,24.67
2023-01-07T21:11:12.620Z,28.77
2023-01-07T21:13:39.353Z,23.70
2023-01-07T21:16:06.433Z,23.50
2023-01-07T21:18:33.882Z,20.55
2023-01-07T21:21:01.921Z,19.27
2023-01-07T21:23:28.654Z,22.70
2023-01-07T21:25:55.351Z,21.58
2023-01-07T21:28:22.057Z,26.23
2023-01-07T21:30:48.879Z,19.98
2023-01-07T21:33:16.035Z,21.13
2023-01-07T21:35:42.793Z,24.35
2023-01-07T21:38:09.696Z,26.50
2023-01-07T21:40:38.895Z,25.27
2023-01-07T21:43:06.308Z,22.88
2023-01-07T21:45:33.176Z,25.73
2023-01-07T21:47:59.871Z,26.02
2023-01-07T21:50:26.777Z,51.70
2023-01-07T21:52:53.481Z,29.38
2023-01-07T21:55:20.316Z,63.15
2023-01-07T21:57:47.003Z,26.58
2023-01-07T22:00:14.287Z,23.02
2023-01-07T22:02:41.124Z,26.95
2023-01-07T22:05:08.574Z,28.83
2023-01-07T22:07:35.237Z,30.88
2023-01-07T22:10:02.480Z,27.30
2023-01-07T22:12:29.226Z,30.42
2023-01-07T22:14:55.901Z,23.80
2023-01-07T22:17:24.439Z,26.63
2023-01-07T22:19:51.216Z,26.23
2023-01-07T22:22:19.381Z,26.35
2023-01-07T22:24:46.164Z,21.25
2023-01-07T22:27:12.881Z,22.77
2023-01-07T22:29:39.514Z,22.73
2023-01-07T22:32:06.217Z,19.00
2023-01-07T22:34:32.929Z,18.55
2023-01-07T22:37:14.326Z,17.98
2023-01-07T22:39:57.562Z,19.70
2023-01-07T22:42:39.300Z,18.05
2023-01-07T22:45:11.318Z,17.20
2023-01-07T22:47:42.016Z,21.33
2023-01-07T22:50:09.372Z,21.63
2023-01-07T22:52:37.072Z,22.52
2023-01-07T22:55:04.965Z,25.30
2023-01-07T22:57:31.833Z,21.85
2023-01-07T23:00:00.433Z,21.40
2023-01-07T23:02:27.612Z,22.63
2023-01-07T23:04:54.313Z,24.85
2023-01-07T23:07:21.010Z,24.15
2023-01-07T23:09:49.069Z,23.60
2023-01-07T23:12:16.872Z,23.17
2023-01-07T23:14:43.582Z,31.90
2023-01-07T23:17:10.675Z,32.50
2023-01-07T23:19:37.423Z,30.77
2023-01-07T23:22:04.121Z,28.33
2023-01-07T23:24:30.802Z,26.33
2023-01-07T23:26:57.437Z,24.60
2023-01-07T23:29:24.239Z,26.95
2023-01-07T23:31:51.082Z,29.38
2023-01-07T23:34:17.895Z,28.73
2023-01-07T23:36:44.617Z,31.75
2023-01-07T23:39:11.744Z,29.88
2023-01-07T23:41:38.406Z,30.17
2023-01-07T23:44:05.157Z,30.98
2023-01-07T23:46:31.870Z,34.78
2023-01-07T23:48:58.525Z,32.85
2023-01-07T23:51:25.255Z,26.98
2023-01-07T23:53:51.888Z,28.42
2023-01-07T23:56:19.836Z,29.30
2023-01-07T23:58:46.766Z,28.33
